Grafton, Massachusetts
Current Conditions -  °F | °C
As of 6:54 PM on Wednesday 28 Jan 2015 (Local Time) from KORH Reporting Station
Clear Clear  
Wind Chill:   Ceiling: Unl
Heat Index: 19°   Visibility: 10mi
Dew Point:   Wind: 16mph
Humidity: 50%   Direction: 320°NW
Pressure: 30.06"   Gusts: NA
Location:  42.21°N, 71.69°W
Report Text: KORH 282354Z 32014KT 10SM CLR M07/M16 A3006 RMK AO2 SLP199 T10721161 11056 21078 53028
Loading
Personal Weather Stations






























Interactive Weather Map New forecast layout! Learn more

10-Day Weather Forecast

Advertisements
Track Severe Weather on mobile